sensor_id;sensor_type;location;lat;lon;timestamp;pressure;altitude;pressure_sealevel;temperature;humidity
72423;BME280;60413;55.658;37.498;2022-11-15T00:01:56;99528.53;;;-0.65;100.00
72423;BME280;60413;55.658;37.498;2022-11-15T00:04:41;99523.50;;;-0.75;100.00
72423;BME280;60413;55.658;37.498;2022-11-15T00:07:28;99529.28;;;-0.81;100.00
72423;BME280;60413;55.658;37.498;2022-11-15T00:10:12;99518.28;;;-0.83;100.00
72423;BME280;60413;55.658;37.498;2022-11-15T00:12:56;99531.63;;;-0.62;100.00
72423;BME280;60413;55.658;37.498;2022-11-15T00:15:41;99535.19;;;-0.63;100.00
72423;BME280;60413;55.658;37.498;2022-11-15T00:18:25;99530.91;;;-0.72;100.00
72423;BME280;60413;55.658;37.498;2022-11-15T00:21:11;99518.78;;;-0.80;100.00
72423;BME280;60413;55.658;37.498;2022-11-15T00:23:56;99516.94;;;-0.87;100.00
72423;BME280;60413;55.658;37.498;2022-11-15T00:26:40;99517.38;;;-1.00;100.00
72423;BME280;60413;55.658;37.498;2022-11-15T00:29:24;99515.44;;;-0.98;100.00
72423;BME280;60413;55.658;37.498;2022-11-15T00:32:09;99505.69;;;-1.04;100.00
72423;BME280;60413;55.658;37.498;2022-11-15T00:34:54;99511.38;;;-1.01;100.00
72423;BME280;60413;55.658;37.498;2022-11-15T00:37:38;99506.09;;;-0.91;100.00
72423;BME280;60413;55.658;37.498;2022-11-15T00:40:22;99497.25;;;-1.15;100.00
72423;BME280;60413;55.658;37.498;2022-11-15T00:43:07;99498.88;;;-1.14;100.00
72423;BME280;60413;55.658;37.498;2022-11-15T00:45:51;99495.16;;;-1.11;100.00
72423;BME280;60413;55.658;37.498;2022-11-15T00:48:36;99485.75;;;-1.20;100.00
72423;BME280;60413;55.658;37.498;2022-11-15T00:51:20;99496.78;;;-1.10;100.00
72423;BME280;60413;55.658;37.498;2022-11-15T00:54:10;99488.72;;;-1.07;100.00
72423;BME280;60413;55.658;37.498;2022-11-15T00:56:54;99492.66;;;-0.95;100.00
72423;BME280;60413;55.658;37.498;2022-11-15T00:59:41;99487.13;;;-1.00;100.00
72423;BME280;60413;55.658;37.498;2022-11-15T01:02:25;99492.19;;;-0.90;100.00
72423;BME280;60413;55.658;37.498;2022-11-15T01:05:10;99477.25;;;-1.04;100.00
72423;BME280;60413;55.658;37.498;2022-11-15T01:07:55;99484.59;;;-0.91;100.00
72423;BME280;60413;55.658;37.498;2022-11-15T01:10:39;99486.50;;;-1.02;100.00
72423;BME280;60413;55.658;37.498;2022-11-15T01:13:23;99477.69;;;-1.09;100.00
72423;BME280;60413;55.658;37.498;2022-11-15T01:16:16;99482.91;;;-1.01;100.00
72423;BME280;60413;55.658;37.498;2022-11-15T01:19:02;99472.06;;;-1.04;100.00
72423;BME280;60413;55.658;37.498;2022-11-15T01:21:49;99467.09;;;-0.98;100.00
72423;BME280;60413;55.658;37.498;2022-11-15T01:24:34;99464.00;;;-1.01;100.00
72423;BME280;60413;55.658;37.498;2022-11-15T01:27:18;99469.53;;;-0.96;100.00
72423;BME280;60413;55.658;37.498;2022-11-15T01:30:03;99462.22;;;-1.01;100.00
72423;BME280;60413;55.658;37.498;2022-11-15T01:32:48;99469.97;;;-1.01;100.00
72423;BME280;60413;55.658;37.498;2022-11-15T01:35:32;99452.84;;;-1.02;100.00
72423;BME280;60413;55.658;37.498;2022-11-15T01:38:17;99460.66;;;-0.94;100.00
72423;BME280;60413;55.658;37.498;2022-11-15T01:41:01;99450.56;;;-1.05;100.00
72423;BME280;60413;55.658;37.498;2022-11-15T01:43:47;99458.28;;;-1.13;100.00
72423;BME280;60413;55.658;37.498;2022-11-15T01:46:35;99460.78;;;-1.29;100.00
72423;BME280;60413;55.658;37.498;2022-11-15T01:49:26;99451.34;;;-1.39;100.00
72423;BME280;60413;55.658;37.498;2022-11-15T01:52:16;99459.97;;;-1.30;100.00
72423;BME280;60413;55.658;37.498;2022-11-15T01:55:08;99460.03;;;-1.22;100.00
72423;BME280;60413;55.658;37.498;2022-11-15T01:57:57;99449.84;;;-1.23;100.00
72423;BME280;60413;55.658;37.498;2022-11-15T02:00:42;99460.28;;;-1.33;100.00
72423;BME280;60413;55.658;37.498;2022-11-15T02:03:55;99462.22;;;-1.35;100.00
72423;BME280;60413;55.658;37.498;2022-11-15T02:06:42;99450.69;;;-1.41;100.00
72423;BME280;60413;55.658;37.498;2022-11-15T02:09:26;99458.69;;;-1.26;100.00
72423;BME280;60413;55.658;37.498;2022-11-15T02:12:13;99458.00;;;-1.10;100.00
72423;BME280;60413;55.658;37.498;2022-11-15T02:14:59;99459.25;;;-1.14;100.00
72423;BME280;60413;55.658;37.498;2022-11-15T02:18:09;99445.88;;;-1.36;100.00
72423;BME280;60413;55.658;37.498;2022-11-15T02:24:16;99444.81;;;-1.51;100.00
72423;BME280;60413;55.658;37.498;2022-11-15T02:39:28;99425.91;;;-1.78;100.00
72423;BME280;60413;55.658;37.498;2022-11-15T02:42:32;99439.25;;;-1.64;100.00
72423;BME280;60413;55.658;37.498;2022-11-15T02:45:40;99436.28;;;-1.70;100.00
72423;BME280;60413;55.658;37.498;2022-11-15T02:48:28;99420.44;;;-1.75;100.00
72423;BME280;60413;55.658;37.498;2022-11-15T02:51:14;99427.94;;;-1.63;100.00
72423;BME280;60413;55.658;37.498;2022-11-15T02:54:00;99431.25;;;-1.53;100.00
72423;BME280;60413;55.658;37.498;2022-11-15T02:56:45;99387.28;;;-1.79;100.00
72423;BME280;60413;55.658;37.498;2022-11-15T03:09:09;99420.59;;;-1.50;100.00
72423;BME280;60413;55.658;37.498;2022-11-15T03:12:11;99411.72;;;-1.47;100.00
72423;BME280;60413;55.658;37.498;2022-11-15T03:15:05;99395.59;;;-1.68;100.00
72423;BME280;60413;55.658;37.498;2022-11-15T03:17:52;99415.69;;;-1.61;100.00
72423;BME280;60413;55.658;37.498;2022-11-15T03:20:39;99410.25;;;-1.50;100.00
72423;BME280;60413;55.658;37.498;2022-11-15T03:23:25;99389.94;;;-1.71;100.00
72423;BME280;60413;55.658;37.498;2022-11-15T03:26:12;99396.38;;;-1.75;100.00
72423;BME280;60413;55.658;37.498;2022-11-15T03:29:02;99400.41;;;-1.73;100.00
72423;BME280;60413;55.658;37.498;2022-11-15T03:31:51;99350.38;;;-1.98;100.00
72423;BME280;60413;55.658;37.498;2022-11-15T03:34:48;99387.19;;;-1.70;100.00
72423;BME280;60413;55.658;37.498;2022-11-15T03:37:39;99401.75;;;-1.69;100.00
72423;BME280;60413;55.658;37.498;2022-11-15T03:40:35;99408.56;;;-1.59;100.00
72423;BME280;60413;55.658;37.498;2022-11-15T03:43:44;99410.41;;;-1.52;100.00
72423;BME280;60413;55.658;37.498;2022-11-15T03:46:32;99401.13;;;-1.62;100.00
72423;BME280;60413;55.658;37.498;2022-11-15T03:49:32;99390.84;;;-1.54;100.00
72423;BME280;60413;55.658;37.498;2022-11-15T03:52:19;99405.75;;;-1.48;100.00
72423;BME280;60413;55.658;37.498;2022-11-15T03:55:09;99395.19;;;-1.55;100.00
72423;BME280;60413;55.658;37.498;2022-11-15T03:57:57;99402.00;;;-1.54;100.00
72423;BME280;60413;55.658;37.498;2022-11-15T04:00:42;99396.84;;;-1.54;100.00
72423;BME280;60413;55.658;37.498;2022-11-15T04:03:27;99392.28;;;-1.60;100.00
72423;BME280;60413;55.658;37.498;2022-11-15T04:06:14;99383.72;;;-1.52;100.00
72423;BME280;60413;55.658;37.498;2022-11-15T04:08:58;99389.00;;;-1.36;100.00
72423;BME280;60413;55.658;37.498;2022-11-15T04:11:43;99392.06;;;-1.32;100.00
72423;BME280;60413;55.658;37.498;2022-11-15T04:14:27;99386.44;;;-1.27;100.00
72423;BME280;60413;55.658;37.498;2022-11-15T04:17:11;99389.75;;;-1.09;100.00
72423;BME280;60413;55.658;37.498;2022-11-15T04:19:55;99376.44;;;-1.22;100.00
72423;BME280;60413;55.658;37.498;2022-11-15T04:23:01;99381.38;;;-1.37;100.00
72423;BME280;60413;55.658;37.498;2022-11-15T04:26:08;99402.25;;;-1.31;100.00
72423;BME280;60413;55.658;37.498;2022-11-15T04:28:54;99373.19;;;-1.59;100.00
72423;BME280;60413;55.658;37.498;2022-11-15T04:31:57;99389.94;;;-1.45;100.00
72423;BME280;60413;55.658;37.498;2022-11-15T04:34:41;99386.88;;;-1.40;100.00
72423;BME280;60413;55.658;37.498;2022-11-15T04:37:28;99371.13;;;-1.55;100.00
72423;BME280;60413;55.658;37.498;2022-11-15T04:40:12;99368.41;;;-1.45;100.00
72423;BME280;60413;55.658;37.498;2022-11-15T04:42:58;99376.59;;;-1.58;100.00
72423;BME280;60413;55.658;37.498;2022-11-15T04:45:42;99344.63;;;-1.57;100.00
72423;BME280;60413;55.658;37.498;2022-11-15T04:48:29;99363.59;;;-1.48;100.00
72423;BME280;60413;55.658;37.498;2022-11-15T04:51:35;99353.69;;;-1.53;100.00
72423;BME280;60413;55.658;37.498;2022-11-15T04:54:31;99365.38;;;-1.41;100.00
72423;BME280;60413;55.658;37.498;2022-11-15T04:57:15;99330.91;;;-1.84;100.00
72423;BME280;60413;55.658;37.498;2022-11-15T04:59:59;99352.44;;;-1.75;100.00
72423;BME280;60413;55.658;37.498;2022-11-15T05:02:43;99356.34;;;-1.71;100.00
72423;BME280;60413;55.658;37.498;2022-11-15T05:05:47;99359.13;;;-1.64;100.00
72423;BME280;60413;55.658;37.498;2022-11-15T05:08:32;99330.66;;;-1.73;100.00
72423;BME280;60413;55.658;37.498;2022-11-15T05:11:19;99292.44;;;-1.95;100.00
72423;BME280;60413;55.658;37.498;2022-11-15T05:14:06;99299.94;;;-1.76;100.00
72423;BME280;60413;55.658;37.498;2022-11-15T05:16:51;99324.91;;;-1.58;100.00
72423;BME280;60413;55.658;37.498;2022-11-15T05:19:37;99353.63;;;-1.35;100.00
72423;BME280;60413;55.658;37.498;2022-11-15T05:22:22;99327.25;;;-1.39;100.00
72423;BME280;60413;55.658;37.498;2022-11-15T05:25:07;99369.84;;;-1.17;100.00
72423;BME280;60413;55.658;37.498;2022-11-15T05:27:51;99327.28;;;-1.31;100.00
72423;BME280;60413;55.658;37.498;2022-11-15T05:30:35;99351.91;;;-1.18;100.00
72423;BME280;60413;55.658;37.498;2022-11-15T05:33:19;99354.50;;;-1.18;100.00
72423;BME280;60413;55.658;37.498;2022-11-15T05:38:57;99340.41;;;-1.16;100.00
72423;BME280;60413;55.658;37.498;2022-11-15T05:41:48;99343.34;;;-1.10;100.00
72423;BME280;60413;55.658;37.498;2022-11-15T05:44:36;99336.47;;;-1.36;100.00
72423;BME280;60413;55.658;37.498;2022-11-15T05:47:23;99336.97;;;-1.33;100.00
72423;BME280;60413;55.658;37.498;2022-11-15T05:50:15;99330.78;;;-1.48;100.00
72423;BME280;60413;55.658;37.498;2022-11-15T05:53:01;99346.50;;;-1.33;100.00
72423;BME280;60413;55.658;37.498;2022-11-15T05:55:48;99329.59;;;-1.19;100.00
72423;BME280;60413;55.658;37.498;2022-11-15T05:58:36;99313.66;;;-0.98;100.00
72423;BME280;60413;55.658;37.498;2022-11-15T06:01:21;99324.22;;;-0.75;100.00
72423;BME280;60413;55.658;37.498;2022-11-15T06:04:09;99329.72;;;-0.29;100.00
72423;BME280;60413;55.658;37.498;2022-11-15T06:06:57;99313.00;;;0.07;100.00
72423;BME280;60413;55.658;37.498;2022-11-15T06:09:51;99330.03;;;-0.15;100.00
72423;BME280;60413;55.658;37.498;2022-11-15T06:13:00;99271.78;;;-0.69;100.00
72423;BME280;60413;55.658;37.498;2022-11-15T06:15:55;99261.91;;;-0.49;100.00
72423;BME280;60413;55.658;37.498;2022-11-15T06:18:41;99263.84;;;-0.67;100.00
72423;BME280;60413;55.658;37.498;2022-11-15T06:21:40;99254.66;;;-0.78;100.00
72423;BME280;60413;55.658;37.498;2022-11-15T06:24:27;99317.44;;;-0.43;100.00
72423;BME280;60413;55.658;37.498;2022-11-15T06:27:11;99321.78;;;-0.44;100.00
72423;BME280;60413;55.658;37.498;2022-11-15T06:29:55;99311.78;;;-0.55;100.00
72423;BME280;60413;55.658;37.498;2022-11-15T06:32:40;99312.56;;;-0.54;100.00
72423;BME280;60413;55.658;37.498;2022-11-15T06:35:25;99305.44;;;-0.61;100.00
72423;BME280;60413;55.658;37.498;2022-11-15T06:38:12;99286.66;;;-0.79;100.00
72423;BME280;60413;55.658;37.498;2022-11-15T06:41:08;99288.59;;;-0.81;100.00
72423;BME280;60413;55.658;37.498;2022-11-15T06:43:53;99288.28;;;-0.78;100.00
72423;BME280;60413;55.658;37.498;2022-11-15T06:46:37;99284.38;;;-0.82;100.00
72423;BME280;60413;55.658;37.498;2022-11-15T06:49:24;99285.22;;;-0.82;100.00
72423;BME280;60413;55.658;37.498;2022-11-15T06:52:09;99278.56;;;-0.84;100.00
72423;BME280;60413;55.658;37.498;2022-11-15T06:54:53;99282.81;;;-0.75;100.00
72423;BME280;60413;55.658;37.498;2022-11-15T06:57:46;99282.97;;;-0.68;100.00
72423;BME280;60413;55.658;37.498;2022-11-15T07:00:33;99259.19;;;-0.80;100.00
72423;BME280;60413;55.658;37.498;2022-11-15T07:03:18;99247.03;;;-0.80;100.00
72423;BME280;60413;55.658;37.498;2022-11-15T07:06:03;99217.09;;;-0.90;100.00
72423;BME280;60413;55.658;37.498;2022-11-15T07:08:48;99260.00;;;-0.63;100.00
72423;BME280;60413;55.658;37.498;2022-11-15T07:11:38;99240.56;;;-0.51;100.00
72423;BME280;60413;55.658;37.498;2022-11-15T07:14:26;99214.34;;;-0.64;100.00
72423;BME280;60413;55.658;37.498;2022-11-15T07:18:05;99267.53;;;-0.12;100.00
72423;BME280;60413;55.658;37.498;2022-11-15T07:21:12;99273.03;;;-0.15;100.00
72423;BME280;60413;55.658;37.498;2022-11-15T07:24:02;99245.56;;;-0.41;100.00
72423;BME280;60413;55.658;37.498;2022-11-15T07:26:50;99241.03;;;-0.39;100.00
72423;BME280;60413;55.658;37.498;2022-11-15T07:29:38;99275.00;;;-0.26;100.00
72423;BME280;60413;55.658;37.498;2022-11-15T07:32:22;99239.91;;;-0.36;100.00
72423;BME280;60413;55.658;37.498;2022-11-15T07:35:06;99198.84;;;-0.64;100.00
72423;BME280;60413;55.658;37.498;2022-11-15T07:38:01;99236.50;;;-0.45;100.00
72423;BME280;60413;55.658;37.498;2022-11-15T07:40:56;99183.63;;;-0.76;100.00
72423;BME280;60413;55.658;37.498;2022-11-15T07:43:45;99180.88;;;-0.82;100.00
72423;BME280;60413;55.658;37.498;2022-11-15T07:50:32;99242.97;;;-0.25;100.00
72423;BME280;60413;55.658;37.498;2022-11-15T07:53:29;99213.56;;;-0.48;100.00
72423;BME280;60413;55.658;37.498;2022-11-15T07:56:25;99220.47;;;-0.41;100.00
72423;BME280;60413;55.658;37.498;2022-11-15T07:59:13;99168.94;;;-0.75;100.00
72423;BME280;60413;55.658;37.498;2022-11-15T08:01:58;99166.84;;;-0.88;100.00
72423;BME280;60413;55.658;37.498;2022-11-15T08:04:48;99192.84;;;-0.48;100.00
72423;BME280;60413;55.658;37.498;2022-11-15T08:07:44;99154.31;;;-0.51;100.00
72423;BME280;60413;55.658;37.498;2022-11-15T08:10:32;99146.34;;;-0.33;100.00
72423;BME280;60413;55.658;37.498;2022-11-15T08:13:23;99170.66;;;-0.51;100.00
72423;BME280;60413;55.658;37.498;2022-11-15T08:16:10;99233.66;;;-0.03;100.00
72423;BME280;60413;55.658;37.498;2022-11-15T08:19:03;99196.94;;;-0.14;100.00
72423;BME280;60413;55.658;37.498;2022-11-15T08:30:36;99203.78;;;0.18;100.00
72423;BME280;60413;55.658;37.498;2022-11-15T08:34:04;99203.59;;;0.28;100.00
72423;BME280;60413;55.658;37.498;2022-11-15T08:36:54;99170.69;;;-0.03;100.00
72423;BME280;60413;55.658;37.498;2022-11-15T08:39:38;99177.03;;;-0.14;100.00
72423;BME280;60413;55.658;37.498;2022-11-15T09:27:00;99161.19;;;-0.19;100.00
72423;BME280;60413;55.658;37.498;2022-11-15T09:34:30;99119.16;;;-0.38;100.00
72423;BME280;60413;55.658;37.498;2022-11-15T09:38:06;99122.16;;;-0.17;100.00
72423;BME280;60413;55.658;37.498;2022-11-15T09:50:12;99074.69;;;-0.41;100.00
72423;BME280;60413;55.658;37.498;2022-11-15T09:53:00;99115.69;;;-0.13;100.00
72423;BME280;60413;55.658;37.498;2022-11-15T09:56:03;99079.72;;;-0.48;100.00
72423;BME280;60413;55.658;37.498;2022-11-15T10:04:44;99100.44;;;-0.08;100.00
72423;BME280;60413;55.658;37.498;2022-11-15T10:07:21;99091.81;;;-0.01;100.00
72423;BME280;60413;55.658;37.498;2022-11-15T10:10:02;99062.28;;;-0.23;100.00
72423;BME280;60413;55.658;37.498;2022-11-15T10:12:31;99074.25;;;-0.13;100.00
72423;BME280;60413;55.658;37.498;2022-11-15T10:15:14;99083.72;;;-0.37;100.00
72423;BME280;60413;55.658;37.498;2022-11-15T10:20:49;99060.50;;;-0.53;100.00
72423;BME280;60413;55.658;37.498;2022-11-15T10:23:59;99040.38;;;-0.43;100.00
72423;BME280;60413;55.658;37.498;2022-11-15T10:26:26;99083.78;;;-0.14;100.00
72423;BME280;60413;55.658;37.498;2022-11-15T10:30:19;99103.00;;;0.00;100.00
72423;BME280;60413;55.658;37.498;2022-11-15T10:37:41;99097.31;;;-0.04;100.00
72423;BME280;60413;55.658;37.498;2022-11-15T10:44:26;99071.81;;;-0.15;100.00
72423;BME280;60413;55.658;37.498;2022-11-15T10:51:26;99047.59;;;-0.30;100.00
72423;BME280;60413;55.658;37.498;2022-11-15T10:53:58;99051.63;;;-0.28;100.00
72423;BME280;60413;55.658;37.498;2022-11-15T11:04:59;99052.03;;;-0.47;100.00
72423;BME280;60413;55.658;37.498;2022-11-15T11:38:51;99031.13;;;-0.38;100.00
72423;BME280;60413;55.658;37.498;2022-11-15T11:51:00;98986.75;;;-0.66;100.00
72423;BME280;60413;55.658;37.498;2022-11-15T12:13:38;98979.16;;;-1.07;100.00
72423;BME280;60413;55.658;37.498;2022-11-15T12:16:26;99004.81;;;-0.97;100.00
72423;BME280;60413;55.658;37.498;2022-11-15T12:19:28;98992.91;;;-1.06;100.00
72423;BME280;60413;55.658;37.498;2022-11-15T12:22:40;98988.53;;;-1.14;100.00
72423;BME280;60413;55.658;37.498;2022-11-15T12:25:33;98987.13;;;-1.25;100.00
72423;BME280;60413;55.658;37.498;2022-11-15T12:55:30;98939.50;;;-1.47;100.00
72423;BME280;60413;55.658;37.498;2022-11-15T13:06:52;98936.78;;;-1.78;100.00
72423;BME280;60413;55.658;37.498;2022-11-15T13:13:43;98922.91;;;-1.77;100.00
72423;BME280;60413;55.658;37.498;2022-11-15T13:16:09;98910.50;;;-1.90;100.00
72423;BME280;60413;55.658;37.498;2022-11-15T13:26:01;98900.47;;;-1.93;100.00
72423;BME280;60413;55.658;37.498;2022-11-15T13:28:46;98895.00;;;-1.98;100.00
72423;BME280;60413;55.658;37.498;2022-11-15T13:37:00;98900.47;;;-1.93;100.00
72423;BME280;60413;55.658;37.498;2022-11-15T13:39:32;98850.63;;;-2.51;100.00
72423;BME280;60413;55.658;37.498;2022-11-15T13:42:39;98878.72;;;-2.32;100.00
72423;BME280;60413;55.658;37.498;2022-11-15T13:45:13;98881.78;;;-2.20;100.00
72423;BME280;60413;55.658;37.498;2022-11-15T13:47:42;98837.25;;;-2.47;100.00
72423;BME280;60413;55.658;37.498;2022-11-15T13:50:14;98854.00;;;-2.26;100.00
72423;BME280;60413;55.658;37.498;2022-11-15T13:52:42;98894.00;;;-2.06;100.00
72423;BME280;60413;55.658;37.498;2022-11-15T13:55:20;98882.56;;;-2.11;100.00
72423;BME280;60413;55.658;37.498;2022-11-15T14:02:21;98884.03;;;-2.09;100.00
72423;BME280;60413;55.658;37.498;2022-11-15T14:22:13;98823.50;;;-2.88;100.00
72423;BME280;60413;55.658;37.498;2022-11-15T14:24:40;98867.25;;;-2.54;100.00
72423;BME280;60413;55.658;37.498;2022-11-15T14:30:54;98856.25;;;-2.56;100.00
72423;BME280;60413;55.658;37.498;2022-11-15T14:37:46;98862.69;;;-2.76;100.00
72423;BME280;60413;55.658;37.498;2022-11-15T14:44:40;98839.31;;;-2.67;100.00
72423;BME280;60413;55.658;37.498;2022-11-15T14:51:51;98827.53;;;-2.69;100.00
72423;BME280;60413;55.658;37.498;2022-11-15T15:06:14;98813.03;;;-2.70;100.00
72423;BME280;60413;55.658;37.498;2022-11-15T15:08:45;98814.66;;;-2.53;100.00
72423;BME280;60413;55.658;37.498;2022-11-15T15:11:40;98827.88;;;-2.64;100.00
72423;BME280;60413;55.658;37.498;2022-11-15T15:14:22;98785.28;;;-2.93;100.00
72423;BME280;60413;55.658;37.498;2022-11-15T15:17:20;98750.13;;;-3.19;100.00
72423;BME280;60413;55.658;37.498;2022-11-15T15:19:46;98757.53;;;-3.24;100.00
72423;BME280;60413;55.658;37.498;2022-11-15T15:22:21;98773.69;;;-3.05;100.00
72423;BME280;60413;55.658;37.498;2022-11-15T15:24:51;98806.56;;;-2.83;100.00
72423;BME280;60413;55.658;37.498;2022-11-15T15:27:18;98780.78;;;-2.91;100.00
72423;BME280;60413;55.658;37.498;2022-11-15T15:29:47;98756.09;;;-3.10;100.00
72423;BME280;60413;55.658;37.498;2022-11-15T15:32:16;98816.41;;;-2.78;100.00
72423;BME280;60413;55.658;37.498;2022-11-15T15:34:42;98749.00;;;-3.16;100.00
72423;BME280;60413;55.658;37.498;2022-11-15T15:39:49;98733.06;;;-3.03;100.00
72423;BME280;60413;55.658;37.498;2022-11-15T15:42:18;98760.63;;;-2.79;100.00
72423;BME280;60413;55.658;37.498;2022-11-15T15:44:45;98778.84;;;-2.72;100.00
72423;BME280;60413;55.658;37.498;2022-11-15T15:47:22;98743.53;;;-2.96;100.00
72423;BME280;60413;55.658;37.498;2022-11-15T15:49:49;98764.66;;;-2.93;100.00
72423;BME280;60413;55.658;37.498;2022-11-15T15:52:17;98697.09;;;-3.29;100.00
72423;BME280;60413;55.658;37.498;2022-11-15T15:54:52;98747.91;;;-2.97;100.00
72423;BME280;60413;55.658;37.498;2022-11-15T15:57:18;98714.69;;;-3.08;100.00
72423;BME280;60413;55.658;37.498;2022-11-15T15:59:45;98702.75;;;-3.18;100.00
72423;BME280;60413;55.658;37.498;2022-11-15T16:02:12;98749.50;;;-2.88;100.00
72423;BME280;60413;55.658;37.498;2022-11-15T16:04:38;98748.25;;;-2.75;100.00
72423;BME280;60413;55.658;37.498;2022-11-15T16:07:04;98734.84;;;-2.79;100.00
72423;BME280;60413;55.658;37.498;2022-11-15T16:09:32;98693.59;;;-3.04;100.00
72423;BME280;60413;55.658;37.498;2022-11-15T16:12:17;98718.09;;;-2.91;100.00
72423;BME280;60413;55.658;37.498;2022-11-15T16:14:45;98734.84;;;-2.71;100.00
72423;BME280;60413;55.658;37.498;2022-11-15T16:17:17;98735.97;;;-2.65;100.00
72423;BME280;60413;55.658;37.498;2022-11-15T16:19:44;98707.78;;;-2.91;100.00
72423;BME280;60413;55.658;37.498;2022-11-15T16:22:10;98707.63;;;-2.90;100.00
72423;BME280;60413;55.658;37.498;2022-11-15T16:24:36;98725.97;;;-2.93;100.00
72423;BME280;60413;55.658;37.498;2022-11-15T16:27:09;98671.97;;;-3.19;100.00
72423;BME280;60413;55.658;37.498;2022-11-15T16:29:40;98692.78;;;-3.12;100.00
72423;BME280;60413;55.658;37.498;2022-11-15T16:32:08;98723.72;;;-2.96;100.00
72423;BME280;60413;55.658;37.498;2022-11-15T16:34:34;98684.06;;;-3.28;100.00
72423;BME280;60413;55.658;37.498;2022-11-15T16:37:02;98747.41;;;-2.76;100.00
72423;BME280;60413;55.658;37.498;2022-11-15T16:39:44;98687.63;;;-3.12;100.00
72423;BME280;60413;55.658;37.498;2022-11-15T16:42:10;98732.41;;;-2.72;100.00
72423;BME280;60413;55.658;37.498;2022-11-15T16:44:44;98732.56;;;-2.66;100.00
72423;BME280;60413;55.658;37.498;2022-11-15T16:47:22;98703.72;;;-2.86;100.00
72423;BME280;60413;55.658;37.498;2022-11-15T16:49:50;98679.88;;;-2.96;100.00
72423;BME280;60413;55.658;37.498;2022-11-15T16:52:19;98693.09;;;-2.99;100.00
72423;BME280;60413;55.658;37.498;2022-11-15T16:54:47;98684.88;;;-2.94;100.00
72423;BME280;60413;55.658;37.498;2022-11-15T16:57:14;98734.19;;;-2.73;100.00
72423;BME280;60413;55.658;37.498;2022-11-15T16:59:46;98740.16;;;-2.72;100.00
72423;BME280;60413;55.658;37.498;2022-11-15T17:02:46;98729.34;;;-2.76;100.00
72423;BME280;60413;55.658;37.498;2022-11-15T17:05:23;98696.19;;;-2.95;100.00
72423;BME280;60413;55.658;37.498;2022-11-15T17:08:09;98654.75;;;-3.27;100.00
72423;BME280;60413;55.658;37.498;2022-11-15T17:10:58;98681.03;;;-3.15;100.00
72423;BME280;60413;55.658;37.498;2022-11-15T17:13:27;98642.50;;;-3.33;100.00
72423;BME280;60413;55.658;37.498;2022-11-15T17:16:12;98693.59;;;-3.04;100.00
72423;BME280;60413;55.658;37.498;2022-11-15T17:21:21;98659.28;;;-3.29;100.00
72423;BME280;60413;55.658;37.498;2022-11-15T17:24:11;98675.38;;;-3.19;100.00
72423;BME280;60413;55.658;37.498;2022-11-15T17:27:04;98651.22;;;-3.34;100.00
72423;BME280;60413;55.658;37.498;2022-11-15T17:29:58;98633.19;;;-3.42;100.00
72423;BME280;60413;55.658;37.498;2022-11-15T17:32:48;98656.88;;;-3.22;100.00
72423;BME280;60413;55.658;37.498;2022-11-15T17:36:14;98649.44;;;-3.33;100.00
72423;BME280;60413;55.658;37.498;2022-11-15T17:39:15;98684.25;;;-3.05;100.00
72423;BME280;60413;55.658;37.498;2022-11-15T17:41:55;98683.13;;;-3.02;100.00
72423;BME280;60413;55.658;37.498;2022-11-15T17:44:37;98646.03;;;-3.26;100.00
72423;BME280;60413;55.658;37.498;2022-11-15T17:47:51;98705.66;;;-2.88;100.00
72423;BME280;60413;55.658;37.498;2022-11-15T17:50:24;98639.94;;;-3.33;100.00
72423;BME280;60413;55.658;37.498;2022-11-15T17:52:58;98674.25;;;-3.00;100.00
72423;BME280;60413;55.658;37.498;2022-11-15T17:55:48;98689.25;;;-2.95;100.00
72423;BME280;60413;55.658;37.498;2022-11-15T17:58:20;98657.66;;;-3.13;100.00
72423;BME280;60413;55.658;37.498;2022-11-15T18:01:36;98620.31;;;-3.34;100.00
72423;BME280;60413;55.658;37.498;2022-11-15T18:04:36;98634.16;;;-3.27;100.00
72423;BME280;60413;55.658;37.498;2022-11-15T18:11:35;98644.94;;;-3.23;100.00
72423;BME280;60413;55.658;37.498;2022-11-15T18:14:13;98645.25;;;-3.18;100.00
72423;BME280;60413;55.658;37.498;2022-11-15T18:17:00;98656.03;;;-3.06;100.00
72423;BME280;60413;55.658;37.498;2022-11-15T18:19:30;98683.75;;;-2.84;100.00
72423;BME280;60413;55.658;37.498;2022-11-15T18:22:04;98657.19;;;-3.01;100.00
72423;BME280;60413;55.658;37.498;2022-11-15T18:24:51;98655.41;;;-3.00;100.00
72423;BME280;60413;55.658;37.498;2022-11-15T18:27:41;98663.31;;;-3.10;100.00
72423;BME280;60413;55.658;37.498;2022-11-15T18:30:12;98607.91;;;-3.39;100.00
72423;BME280;60413;55.658;37.498;2022-11-15T18:32:37;98647.69;;;-3.08;100.00
72423;BME280;60413;55.658;37.498;2022-11-15T18:35:06;98679.41;;;-2.91;100.00
72423;BME280;60413;55.658;37.498;2022-11-15T18:37:32;98642.84;;;-3.11;100.00
72423;BME280;60413;55.658;37.498;2022-11-15T18:39:58;98644.13;;;-3.07;100.00
72423;BME280;60413;55.658;37.498;2022-11-15T18:42:24;98629.00;;;-3.19;100.00
72423;BME280;60413;55.658;37.498;2022-11-15T18:44:50;98671.66;;;-2.83;100.00
72423;BME280;60413;55.658;37.498;2022-11-15T18:47:16;98640.41;;;-3.05;100.00
72423;BME280;60413;55.658;37.498;2022-11-15T18:49:47;98633.66;;;-3.14;100.00
72423;BME280;60413;55.658;37.498;2022-11-15T18:52:13;98643.16;;;-3.06;100.00
72423;BME280;60413;55.658;37.498;2022-11-15T18:54:41;98663.47;;;-2.95;100.00
72423;BME280;60413;55.658;37.498;2022-11-15T18:57:27;98643.94;;;-3.06;100.00
72423;BME280;60413;55.658;37.498;2022-11-15T18:59:56;98640.41;;;-3.13;100.00
72423;BME280;60413;55.658;37.498;2022-11-15T19:06:41;98605.47;;;-3.32;100.00
72423;BME280;60413;55.658;37.498;2022-11-15T19:09:08;98635.91;;;-3.11;100.00
72423;BME280;60413;55.658;37.498;2022-11-15T19:11:45;98593.56;;;-3.33;100.00
72423;BME280;60413;55.658;37.498;2022-11-15T19:14:16;98622.38;;;-3.13;100.00
72423;BME280;60413;55.658;37.498;2022-11-15T19:16:46;98616.09;;;-3.19;100.00